sensor_id;sensor_type;location;lat;lon;timestamp;P1;durP1;ratioP1;P2;durP2;ratioP2
48703;SDS011;34502;51.296;16.918;2023-02-28T00:01:27;28.05;;;13.65;;
48703;SDS011;34502;51.296;16.918;2023-02-28T00:03:53;24.73;;;13.13;;
48703;SDS011;34502;51.296;16.918;2023-02-28T00:06:19;28.65;;;13.20;;
48703;SDS011;34502;51.296;16.918;2023-02-28T00:08:46;27.17;;;13.15;;
48703;SDS011;34502;51.296;16.918;2023-02-28T00:11:13;30.80;;;14.45;;
48703;SDS011;34502;51.296;16.918;2023-02-28T00:13:41;35.65;;;16.08;;
48703;SDS011;34502;51.296;16.918;2023-02-28T00:16:12;33.10;;;15.07;;
48703;SDS011;34502;51.296;16.918;2023-02-28T00:18:40;33.53;;;15.93;;
48703;SDS011;34502;51.296;16.918;2023-02-28T00:21:06;31.83;;;15.07;;
48703;SDS011;34502;51.296;16.918;2023-02-28T00:23:33;32.75;;;16.35;;
48703;SDS011;34502;51.296;16.918;2023-02-28T00:25:59;33.80;;;16.35;;
48703;SDS011;34502;51.296;16.918;2023-02-28T00:28:26;36.45;;;17.35;;
48703;SDS011;34502;51.296;16.918;2023-02-28T00:30:52;34.28;;;17.23;;
48703;SDS011;34502;51.296;16.918;2023-02-28T00:33:18;36.03;;;19.10;;
48703;SDS011;34502;51.296;16.918;2023-02-28T00:35:44;31.50;;;17.27;;
48703;SDS011;34502;51.296;16.918;2023-02-28T00:38:11;46.97;;;22.02;;
48703;SDS011;34502;51.296;16.918;2023-02-28T00:40:38;43.10;;;20.13;;
48703;SDS011;34502;51.296;16.918;2023-02-28T00:43:04;38.13;;;20.23;;
48703;SDS011;34502;51.296;16.918;2023-02-28T00:45:30;29.77;;;16.20;;
48703;SDS011;34502;51.296;16.918;2023-02-28T00:47:56;33.70;;;17.02;;
48703;SDS011;34502;51.296;16.918;2023-02-28T00:50:22;34.13;;;15.60;;
48703;SDS011;34502;51.296;16.918;2023-02-28T00:52:48;33.33;;;16.17;;
48703;SDS011;34502;51.296;16.918;2023-02-28T00:55:15;36.60;;;17.60;;
48703;SDS011;34502;51.296;16.918;2023-02-28T00:57:41;30.05;;;15.75;;
48703;SDS011;34502;51.296;16.918;2023-02-28T01:00:07;36.95;;;18.00;;
48703;SDS011;34502;51.296;16.918;2023-02-28T01:02:34;45.72;;;20.15;;
48703;SDS011;34502;51.296;16.918;2023-02-28T01:05:00;40.17;;;18.95;;
48703;SDS011;34502;51.296;16.918;2023-02-28T01:07:26;37.75;;;19.77;;
48703;SDS011;34502;51.296;16.918;2023-02-28T01:09:52;32.40;;;16.73;;
48703;SDS011;34502;51.296;16.918;2023-02-28T01:12:18;32.20;;;16.65;;
48703;SDS011;34502;51.296;16.918;2023-02-28T01:14:44;36.50;;;17.48;;
48703;SDS011;34502;51.296;16.918;2023-02-28T01:17:10;33.55;;;16.55;;
48703;SDS011;34502;51.296;16.918;2023-02-28T01:19:37;34.33;;;16.30;;
48703;SDS011;34502;51.296;16.918;2023-02-28T01:22:03;36.10;;;17.40;;
48703;SDS011;34502;51.296;16.918;2023-02-28T01:24:30;33.22;;;17.98;;
48703;SDS011;34502;51.296;16.918;2023-02-28T01:26:57;35.95;;;18.02;;
48703;SDS011;34502;51.296;16.918;2023-02-28T01:29:24;38.83;;;17.33;;
48703;SDS011;34502;51.296;16.918;2023-02-28T01:31:50;36.60;;;18.10;;
48703;SDS011;34502;51.296;16.918;2023-02-28T01:34:16;34.60;;;17.50;;
48703;SDS011;34502;51.296;16.918;2023-02-28T01:36:44;35.85;;;17.85;;
48703;SDS011;34502;51.296;16.918;2023-02-28T01:39:10;34.72;;;17.73;;
48703;SDS011;34502;51.296;16.918;2023-02-28T01:41:37;38.78;;;19.45;;
48703;SDS011;34502;51.296;16.918;2023-02-28T01:44:05;43.28;;;20.95;;
48703;SDS011;34502;51.296;16.918;2023-02-28T01:46:52;39.58;;;19.42;;
48703;SDS011;34502;51.296;16.918;2023-02-28T01:49:18;50.72;;;23.20;;
48703;SDS011;34502;51.296;16.918;2023-02-28T01:51:45;52.03;;;23.15;;
48703;SDS011;34502;51.296;16.918;2023-02-28T01:54:29;62.80;;;25.63;;
48703;SDS011;34502;51.296;16.918;2023-02-28T01:56:57;59.30;;;26.08;;
48703;SDS011;34502;51.296;16.918;2023-02-28T01:59:29;60.75;;;23.30;;
48703;SDS011;34502;51.296;16.918;2023-02-28T02:02:05;48.38;;;23.40;;
48703;SDS011;34502;51.296;16.918;2023-02-28T02:04:39;50.03;;;20.95;;
48703;SDS011;34502;51.296;16.918;2023-02-28T02:07:18;42.00;;;20.45;;
48703;SDS011;34502;51.296;16.918;2023-02-28T02:09:45;39.95;;;19.90;;
48703;SDS011;34502;51.296;16.918;2023-02-28T02:12:16;37.75;;;18.52;;
48703;SDS011;34502;51.296;16.918;2023-02-28T02:15:37;41.40;;;19.02;;
48703;SDS011;34502;51.296;16.918;2023-02-28T02:18:04;41.20;;;19.25;;
48703;SDS011;34502;51.296;16.918;2023-02-28T02:20:51;37.95;;;18.23;;
48703;SDS011;34502;51.296;16.918;2023-02-28T02:23:39;34.55;;;16.92;;
48703;SDS011;34502;51.296;16.918;2023-02-28T02:29:19;42.35;;;21.67;;
48703;SDS011;34502;51.296;16.918;2023-02-28T02:32:05;44.28;;;21.08;;
48703;SDS011;34502;51.296;16.918;2023-02-28T02:40:22;38.67;;;20.42;;
48703;SDS011;34502;51.296;16.918;2023-02-28T02:48:00;41.10;;;20.52;;
48703;SDS011;34502;51.296;16.918;2023-02-28T02:50:33;43.58;;;20.75;;
48703;SDS011;34502;51.296;16.918;2023-02-28T02:53:06;49.58;;;23.17;;
48703;SDS011;34502;51.296;16.918;2023-02-28T02:55:34;50.20;;;22.50;;
48703;SDS011;34502;51.296;16.918;2023-02-28T02:58:05;53.40;;;21.70;;
48703;SDS011;34502;51.296;16.918;2023-02-28T03:00:35;48.38;;;21.67;;
48703;SDS011;34502;51.296;16.918;2023-02-28T03:03:04;42.47;;;20.92;;
48703;SDS011;34502;51.296;16.918;2023-02-28T03:05:42;46.05;;;23.30;;
48703;SDS011;34502;51.296;16.918;2023-02-28T03:08:11;47.50;;;21.92;;
48703;SDS011;34502;51.296;16.918;2023-02-28T03:10:38;47.67;;;22.60;;
48703;SDS011;34502;51.296;16.918;2023-02-28T03:16:02;53.25;;;22.85;;
48703;SDS011;34502;51.296;16.918;2023-02-28T03:21:23;62.40;;;25.33;;
48703;SDS011;34502;51.296;16.918;2023-02-28T03:24:03;62.65;;;26.25;;
48703;SDS011;34502;51.296;16.918;2023-02-28T03:26:34;63.42;;;26.25;;
48703;SDS011;34502;51.296;16.918;2023-02-28T03:34:39;48.30;;;24.00;;
48703;SDS011;34502;51.296;16.918;2023-02-28T03:37:13;50.72;;;25.23;;
48703;SDS011;34502;51.296;16.918;2023-02-28T03:39:43;44.05;;;22.38;;
48703;SDS011;34502;51.296;16.918;2023-02-28T03:42:15;38.53;;;20.20;;
48703;SDS011;34502;51.296;16.918;2023-02-28T03:44:53;39.55;;;20.90;;
48703;SDS011;34502;51.296;16.918;2023-02-28T03:50:06;43.88;;;20.63;;
48703;SDS011;34502;51.296;16.918;2023-02-28T03:52:35;38.72;;;20.30;;
48703;SDS011;34502;51.296;16.918;2023-02-28T03:55:06;38.05;;;19.00;;
48703;SDS011;34502;51.296;16.918;2023-02-28T04:00:19;35.95;;;17.98;;
48703;SDS011;34502;51.296;16.918;2023-02-28T04:02:53;33.80;;;17.55;;
48703;SDS011;34502;51.296;16.918;2023-02-28T04:05:20;34.28;;;18.08;;
48703;SDS011;34502;51.296;16.918;2023-02-28T04:07:46;29.00;;;16.38;;
48703;SDS011;34502;51.296;16.918;2023-02-28T04:10:13;29.73;;;16.20;;
48703;SDS011;34502;51.296;16.918;2023-02-28T04:12:40;32.50;;;17.15;;
48703;SDS011;34502;51.296;16.918;2023-02-28T04:15:07;34.45;;;18.02;;
48703;SDS011;34502;51.296;16.918;2023-02-28T04:17:35;31.67;;;16.80;;
48703;SDS011;34502;51.296;16.918;2023-02-28T04:20:01;34.20;;;17.33;;
48703;SDS011;34502;51.296;16.918;2023-02-28T04:22:28;30.48;;;17.55;;
48703;SDS011;34502;51.296;16.918;2023-02-28T04:24:54;38.08;;;19.95;;
48703;SDS011;34502;51.296;16.918;2023-02-28T04:27:21;39.63;;;18.58;;
48703;SDS011;34502;51.296;16.918;2023-02-28T04:29:47;35.70;;;18.90;;
48703;SDS011;34502;51.296;16.918;2023-02-28T04:32:13;39.30;;;19.33;;
48703;SDS011;34502;51.296;16.918;2023-02-28T04:34:39;36.47;;;19.58;;
48703;SDS011;34502;51.296;16.918;2023-02-28T04:37:05;40.17;;;20.77;;
48703;SDS011;34502;51.296;16.918;2023-02-28T04:39:34;39.60;;;20.45;;
48703;SDS011;34502;51.296;16.918;2023-02-28T04:42:00;40.95;;;20.88;;
48703;SDS011;34502;51.296;16.918;2023-02-28T04:44:27;45.38;;;22.38;;
48703;SDS011;34502;51.296;16.918;2023-02-28T04:46:53;41.13;;;21.33;;
48703;SDS011;34502;51.296;16.918;2023-02-28T04:49:19;44.55;;;21.90;;
48703;SDS011;34502;51.296;16.918;2023-02-28T04:51:45;41.25;;;21.13;;
48703;SDS011;34502;51.296;16.918;2023-02-28T04:54:11;52.13;;;22.90;;
48703;SDS011;34502;51.296;16.918;2023-02-28T04:56:38;40.45;;;21.02;;
48703;SDS011;34502;51.296;16.918;2023-02-28T04:59:04;42.72;;;21.08;;
48703;SDS011;34502;51.296;16.918;2023-02-28T05:01:31;42.90;;;21.95;;
48703;SDS011;34502;51.296;16.918;2023-02-28T05:03:59;40.95;;;23.55;;
48703;SDS011;34502;51.296;16.918;2023-02-28T05:06:26;46.33;;;22.58;;
48703;SDS011;34502;51.296;16.918;2023-02-28T05:08:53;46.38;;;22.48;;
48703;SDS011;34502;51.296;16.918;2023-02-28T05:11:21;45.08;;;22.38;;
48703;SDS011;34502;51.296;16.918;2023-02-28T05:13:52;37.45;;;21.58;;
48703;SDS011;34502;51.296;16.918;2023-02-28T05:16:19;42.53;;;22.05;;
48703;SDS011;34502;51.296;16.918;2023-02-28T05:18:45;45.42;;;21.30;;
48703;SDS011;34502;51.296;16.918;2023-02-28T05:24:06;44.88;;;22.70;;
48703;SDS011;34502;51.296;16.918;2023-02-28T05:26:38;52.90;;;25.23;;
48703;SDS011;34502;51.296;16.918;2023-02-28T05:29:05;49.88;;;24.83;;
48703;SDS011;34502;51.296;16.918;2023-02-28T05:31:32;48.03;;;24.95;;
48703;SDS011;34502;51.296;16.918;2023-02-28T05:33:58;46.03;;;23.80;;
48703;SDS011;34502;51.296;16.918;2023-02-28T05:36:24;50.42;;;23.10;;
48703;SDS011;34502;51.296;16.918;2023-02-28T05:38:51;44.95;;;23.48;;
48703;SDS011;34502;51.296;16.918;2023-02-28T05:41:18;50.15;;;24.55;;
48703;SDS011;34502;51.296;16.918;2023-02-28T05:43:44;53.88;;;24.20;;
48703;SDS011;34502;51.296;16.918;2023-02-28T05:46:11;56.53;;;26.10;;
48703;SDS011;34502;51.296;16.918;2023-02-28T05:48:38;50.08;;;25.15;;
48703;SDS011;34502;51.296;16.918;2023-02-28T05:51:06;51.17;;;26.10;;
48703;SDS011;34502;51.296;16.918;2023-02-28T05:53:32;53.03;;;27.60;;
48703;SDS011;34502;51.296;16.918;2023-02-28T05:55:59;53.53;;;28.67;;
48703;SDS011;34502;51.296;16.918;2023-02-28T05:58:25;54.42;;;27.60;;
48703;SDS011;34502;51.296;16.918;2023-02-28T06:00:55;55.50;;;27.80;;
48703;SDS011;34502;51.296;16.918;2023-02-28T06:03:22;56.63;;;27.45;;
48703;SDS011;34502;51.296;16.918;2023-02-28T06:05:48;52.40;;;26.10;;
48703;SDS011;34502;51.296;16.918;2023-02-28T06:08:15;53.15;;;26.50;;
48703;SDS011;34502;51.296;16.918;2023-02-28T06:10:41;55.78;;;26.83;;
48703;SDS011;34502;51.296;16.918;2023-02-28T06:13:07;52.72;;;27.23;;
48703;SDS011;34502;51.296;16.918;2023-02-28T06:15:34;51.03;;;28.08;;
48703;SDS011;34502;51.296;16.918;2023-02-28T06:18:00;59.15;;;27.90;;
48703;SDS011;34502;51.296;16.918;2023-02-28T06:20:26;56.88;;;28.02;;
48703;SDS011;34502;51.296;16.918;2023-02-28T06:22:56;54.35;;;27.90;;
48703;SDS011;34502;51.296;16.918;2023-02-28T06:25:26;60.35;;;28.88;;
48703;SDS011;34502;51.296;16.918;2023-02-28T06:27:52;52.03;;;27.45;;
48703;SDS011;34502;51.296;16.918;2023-02-28T06:30:19;49.35;;;26.02;;
48703;SDS011;34502;51.296;16.918;2023-02-28T06:32:50;52.92;;;26.55;;
48703;SDS011;34502;51.296;16.918;2023-02-28T06:35:16;49.83;;;25.65;;
48703;SDS011;34502;51.296;16.918;2023-02-28T06:37:43;51.72;;;27.42;;
48703;SDS011;34502;51.296;16.918;2023-02-28T06:40:09;57.83;;;28.52;;
48703;SDS011;34502;51.296;16.918;2023-02-28T06:42:36;61.95;;;29.58;;
48703;SDS011;34502;51.296;16.918;2023-02-28T06:45:02;57.60;;;28.80;;
48703;SDS011;34502;51.296;16.918;2023-02-28T06:47:34;62.88;;;28.48;;
48703;SDS011;34502;51.296;16.918;2023-02-28T06:50:01;59.83;;;28.52;;
48703;SDS011;34502;51.296;16.918;2023-02-28T06:52:27;52.78;;;25.05;;
48703;SDS011;34502;51.296;16.918;2023-02-28T06:54:53;42.45;;;22.98;;
48703;SDS011;34502;51.296;16.918;2023-02-28T06:57:26;44.92;;;23.67;;
48703;SDS011;34502;51.296;16.918;2023-02-28T06:59:57;46.28;;;23.23;;
48703;SDS011;34502;51.296;16.918;2023-02-28T07:02:24;52.78;;;24.42;;
48703;SDS011;34502;51.296;16.918;2023-02-28T07:04:51;52.85;;;26.95;;
48703;SDS011;34502;51.296;16.918;2023-02-28T07:07:17;55.08;;;27.15;;
48703;SDS011;34502;51.296;16.918;2023-02-28T07:09:43;55.78;;;27.20;;
48703;SDS011;34502;51.296;16.918;2023-02-28T07:12:09;50.88;;;26.92;;
48703;SDS011;34502;51.296;16.918;2023-02-28T07:14:36;51.70;;;26.83;;
48703;SDS011;34502;51.296;16.918;2023-02-28T07:17:02;50.97;;;25.70;;
48703;SDS011;34502;51.296;16.918;2023-02-28T07:19:29;45.95;;;23.90;;
48703;SDS011;34502;51.296;16.918;2023-02-28T07:21:55;47.47;;;23.67;;
48703;SDS011;34502;51.296;16.918;2023-02-28T07:24:21;44.88;;;23.30;;
48703;SDS011;34502;51.296;16.918;2023-02-28T07:26:50;46.58;;;23.27;;
48703;SDS011;34502;51.296;16.918;2023-02-28T07:29:16;49.53;;;23.25;;
48703;SDS011;34502;51.296;16.918;2023-02-28T07:31:42;46.08;;;23.17;;
48703;SDS011;34502;51.296;16.918;2023-02-28T07:34:08;39.05;;;20.73;;
48703;SDS011;34502;51.296;16.918;2023-02-28T07:36:35;47.83;;;24.00;;
48703;SDS011;34502;51.296;16.918;2023-02-28T07:39:01;43.60;;;22.58;;
48703;SDS011;34502;51.296;16.918;2023-02-28T07:41:27;42.28;;;22.67;;
48703;SDS011;34502;51.296;16.918;2023-02-28T07:43:54;39.45;;;21.02;;
48703;SDS011;34502;51.296;16.918;2023-02-28T07:46:22;41.30;;;21.05;;
48703;SDS011;34502;51.296;16.918;2023-02-28T07:48:48;43.72;;;22.02;;
48703;SDS011;34502;51.296;16.918;2023-02-28T07:51:14;45.13;;;22.42;;
48703;SDS011;34502;51.296;16.918;2023-02-28T07:53:41;46.55;;;23.48;;
48703;SDS011;34502;51.296;16.918;2023-02-28T07:56:07;49.55;;;24.00;;
48703;SDS011;34502;51.296;16.918;2023-02-28T07:58:33;49.95;;;23.45;;
48703;SDS011;34502;51.296;16.918;2023-02-28T08:01:09;47.50;;;24.02;;
48703;SDS011;34502;51.296;16.918;2023-02-28T08:03:36;45.33;;;22.15;;
48703;SDS011;34502;51.296;16.918;2023-02-28T08:06:04;47.45;;;23.83;;
48703;SDS011;34502;51.296;16.918;2023-02-28T08:08:30;42.47;;;22.23;;
48703;SDS011;34502;51.296;16.918;2023-02-28T08:11:00;43.70;;;21.98;;
48703;SDS011;34502;51.296;16.918;2023-02-28T08:13:28;42.25;;;21.73;;
48703;SDS011;34502;51.296;16.918;2023-02-28T08:15:54;39.67;;;21.75;;
48703;SDS011;34502;51.296;16.918;2023-02-28T08:18:21;38.95;;;20.52;;
48703;SDS011;34502;51.296;16.918;2023-02-28T08:20:48;39.42;;;19.83;;
48703;SDS011;34502;51.296;16.918;2023-02-28T08:23:14;41.38;;;18.85;;
48703;SDS011;34502;51.296;16.918;2023-02-28T08:25:40;36.42;;;19.35;;
48703;SDS011;34502;51.296;16.918;2023-02-28T08:28:06;33.10;;;18.67;;
48703;SDS011;34502;51.296;16.918;2023-02-28T08:30:32;22.00;;;13.45;;
48703;SDS011;34502;51.296;16.918;2023-02-28T08:32:58;23.77;;;14.63;;
48703;SDS011;34502;51.296;16.918;2023-02-28T08:35:24;24.77;;;14.00;;
48703;SDS011;34502;51.296;16.918;2023-02-28T08:37:50;23.88;;;13.23;;
48703;SDS011;34502;51.296;16.918;2023-02-28T08:40:17;24.45;;;13.80;;
48703;SDS011;34502;51.296;16.918;2023-02-28T08:42:47;15.95;;;8.95;;
48703;SDS011;34502;51.296;16.918;2023-02-28T08:45:14;18.20;;;10.13;;
48703;SDS011;34502;51.296;16.918;2023-02-28T08:47:40;24.70;;;12.88;;
48703;SDS011;34502;51.296;16.918;2023-02-28T08:50:07;14.55;;;8.63;;
48703;SDS011;34502;51.296;16.918;2023-02-28T08:52:33;17.58;;;10.50;;
48703;SDS011;34502;51.296;16.918;2023-02-28T08:54:59;10.77;;;6.65;;
48703;SDS011;34502;51.296;16.918;2023-02-28T08:57:25;13.63;;;7.60;;
48703;SDS011;34502;51.296;16.918;2023-02-28T08:59:52;14.45;;;7.68;;
48703;SDS011;34502;51.296;16.918;2023-02-28T09:02:18;12.95;;;7.78;;
48703;SDS011;34502;51.296;16.918;2023-02-28T09:04:44;16.20;;;9.45;;
48703;SDS011;34502;51.296;16.918;2023-02-28T09:07:11;17.92;;;10.23;;
48703;SDS011;34502;51.296;16.918;2023-02-28T09:09:37;23.55;;;13.00;;
48703;SDS011;34502;51.296;16.918;2023-02-28T09:12:18;23.00;;;12.75;;
48703;SDS011;34502;51.296;16.918;2023-02-28T09:14:45;14.40;;;7.00;;
48703;SDS011;34502;51.296;16.918;2023-02-28T09:17:11;18.02;;;8.70;;
48703;SDS011;34502;51.296;16.918;2023-02-28T09:19:37;19.52;;;10.05;;
48703;SDS011;34502;51.296;16.918;2023-02-28T09:22:03;17.40;;;8.93;;
48703;SDS011;34502;51.296;16.918;2023-02-28T09:24:29;15.25;;;7.50;;
48703;SDS011;34502;51.296;16.918;2023-02-28T09:26:56;14.25;;;7.53;;
48703;SDS011;34502;51.296;16.918;2023-02-28T09:29:22;17.70;;;8.68;;
48703;SDS011;34502;51.296;16.918;2023-02-28T09:31:49;16.98;;;8.10;;
48703;SDS011;34502;51.296;16.918;2023-02-28T09:34:15;12.32;;;8.32;;
48703;SDS011;34502;51.296;16.918;2023-02-28T09:36:42;16.45;;;7.53;;
48703;SDS011;34502;51.296;16.918;2023-02-28T09:39:08;15.52;;;8.75;;
48703;SDS011;34502;51.296;16.918;2023-02-28T09:41:42;15.40;;;7.15;;
48703;SDS011;34502;51.296;16.918;2023-02-28T09:44:37;9.00;;;5.22;;
48703;SDS011;34502;51.296;16.918;2023-02-28T09:47:05;8.35;;;4.90;;
48703;SDS011;34502;51.296;16.918;2023-02-28T09:49:39;7.97;;;4.75;;
48703;SDS011;34502;51.296;16.918;2023-02-28T09:52:09;9.32;;;6.05;;
48703;SDS011;34502;51.296;16.918;2023-02-28T09:54:44;10.98;;;5.63;;
48703;SDS011;34502;51.296;16.918;2023-02-28T09:57:14;9.68;;;5.20;;
48703;SDS011;34502;51.296;16.918;2023-02-28T10:05:38;7.45;;;5.20;;
48703;SDS011;34502;51.296;16.918;2023-02-28T10:08:25;8.70;;;5.18;;
48703;SDS011;34502;51.296;16.918;2023-02-28T10:10:57;11.30;;;6.95;;
48703;SDS011;34502;51.296;16.918;2023-02-28T10:13:36;10.80;;;7.50;;
48703;SDS011;34502;51.296;16.918;2023-02-28T10:16:10;14.10;;;7.05;;
48703;SDS011;34502;51.296;16.918;2023-02-28T10:21:34;12.15;;;7.15;;
48703;SDS011;34502;51.296;16.918;2023-02-28T10:24:03;11.77;;;7.55;;
48703;SDS011;34502;51.296;16.918;2023-02-28T10:26:36;15.70;;;8.15;;
48703;SDS011;34502;51.296;16.918;2023-02-28T10:29:03;12.68;;;8.15;;
48703;SDS011;34502;51.296;16.918;2023-02-28T10:31:29;15.10;;;8.80;;
48703;SDS011;34502;51.296;16.918;2023-02-28T10:33:55;12.45;;;7.60;;
48703;SDS011;34502;51.296;16.918;2023-02-28T10:36:21;12.68;;;7.57;;
48703;SDS011;34502;51.296;16.918;2023-02-28T10:38:48;14.32;;;8.73;;
48703;SDS011;34502;51.296;16.918;2023-02-28T10:41:28;16.45;;;9.30;;
48703;SDS011;34502;51.296;16.918;2023-02-28T10:44:20;14.70;;;8.50;;
48703;SDS011;34502;51.296;16.918;2023-02-28T10:46:47;13.32;;;8.32;;
48703;SDS011;34502;51.296;16.918;2023-02-28T10:49:19;15.10;;;8.77;;
48703;SDS011;34502;51.296;16.918;2023-02-28T10:51:48;15.85;;;8.20;;
48703;SDS011;34502;51.296;16.918;2023-02-28T10:54:22;14.82;;;8.60;;
48703;SDS011;34502;51.296;16.918;2023-02-28T10:57:05;15.98;;;8.95;;
48703;SDS011;34502;51.296;16.918;2023-02-28T10:59:40;17.50;;;9.45;;
48703;SDS011;34502;51.296;16.918;2023-02-28T11:04:55;15.85;;;10.18;;
48703;SDS011;34502;51.296;16.918;2023-02-28T11:07:22;15.65;;;9.88;;
48703;SDS011;34502;51.296;16.918;2023-02-28T11:09:49;17.67;;;10.40;;
48703;SDS011;34502;51.296;16.918;2023-02-28T11:12:26;15.35;;;8.70;;
48703;SDS011;34502;51.296;16.918;2023-02-28T11:14:59;14.43;;;8.60;;
48703;SDS011;34502;51.296;16.918;2023-02-28T11:17:30;16.33;;;9.77;;
48703;SDS011;34502;51.296;16.918;2023-02-28T11:19:58;19.02;;;10.73;;
48703;SDS011;34502;51.296;16.918;2023-02-28T11:22:31;19.35;;;10.20;;
48703;SDS011;34502;51.296;16.918;2023-02-28T11:25:02;17.52;;;10.38;;
48703;SDS011;34502;51.296;16.918;2023-02-28T11:30:02;15.20;;;8.90;;
48703;SDS011;34502;51.296;16.918;2023-02-28T11:32:29;16.85;;;8.90;;
48703;SDS011;34502;51.296;16.918;2023-02-28T11:35:00;15.98;;;8.73;;
48703;SDS011;34502;51.296;16.918;2023-02-28T11:37:47;14.27;;;8.38;;
48703;SDS011;34502;51.296;16.918;2023-02-28T11:40:14;15.15;;;7.90;;
48703;SDS011;34502;51.296;16.918;2023-02-28T11:43:00;16.65;;;8.68;;
48703;SDS011;34502;51.296;16.918;2023-02-28T11:45:53;14.98;;;8.65;;
48703;SDS011;34502;51.296;16.918;2023-02-28T11:48:32;17.08;;;9.93;;
48703;SDS011;34502;51.296;16.918;2023-02-28T11:51:12;15.52;;;9.80;;
48703;SDS011;34502;51.296;16.918;2023-02-28T11:53:51;19.15;;;9.90;;
48703;SDS011;34502;51.296;16.918;2023-02-28T11:56:44;16.88;;;9.57;;
48703;SDS011;34502;51.296;16.918;2023-02-28T12:01:58;17.55;;;10.68;;
48703;SDS011;34502;51.296;16.918;2023-02-28T12:07:37;20.17;;;10.88;;
48703;SDS011;34502;51.296;16.918;2023-02-28T12:28:25;19.30;;;11.15;;
48703;SDS011;34502;51.296;16.918;2023-02-28T12:30:59;19.38;;;10.73;;
48703;SDS011;34502;51.296;16.918;2023-02-28T12:33:34;19.33;;;11.30;;
48703;SDS011;34502;51.296;16.918;2023-02-28T12:36:04;17.98;;;10.27;;
48703;SDS011;34502;51.296;16.918;2023-02-28T12:38:36;17.25;;;10.68;;
48703;SDS011;34502;51.296;16.918;2023-02-28T12:43:40;16.63;;;11.23;;
48703;SDS011;34502;51.296;16.918;2023-02-28T12:46:22;15.93;;;10.05;;
48703;SDS011;34502;51.296;16.918;2023-02-28T12:48:55;18.33;;;10.13;;
48703;SDS011;34502;51.296;16.918;2023-02-28T12:51:22;17.02;;;10.35;;
48703;SDS011;34502;51.296;16.918;2023-02-28T12:59:21;18.58;;;12.18;;
48703;SDS011;34502;51.296;16.918;2023-02-28T13:10:13;17.45;;;11.35;;
48703;SDS011;34502;51.296;16.918;2023-02-28T13:12:48;18.48;;;11.40;;
48703;SDS011;34502;51.296;16.918;2023-02-28T13:15:25;16.27;;;10.30;;
48703;SDS011;34502;51.296;16.918;2023-02-28T13:17:54;17.27;;;10.20;;
48703;SDS011;34502;51.296;16.918;2023-02-28T13:20:23;18.45;;;10.88;;
48703;SDS011;34502;51.296;16.918;2023-02-28T13:22:50;16.67;;;10.32;;
48703;SDS011;34502;51.296;16.918;2023-02-28T13:28:02;19.77;;;11.43;;
48703;SDS011;34502;51.296;16.918;2023-02-28T13:33:30;19.48;;;11.27;;
48703;SDS011;34502;51.296;16.918;2023-02-28T13:36:11;19.85;;;12.25;;
48703;SDS011;34502;51.296;16.918;2023-02-28T13:44:07;21.33;;;11.68;;
48703;SDS011;34502;51.296;16.918;2023-02-28T13:57:30;14.68;;;9.55;;
48703;SDS011;34502;51.296;16.918;2023-02-28T14:06:09;15.98;;;9.13;;
48703;SDS011;34502;51.296;16.918;2023-02-28T14:11:53;15.73;;;9.75;;
48703;SDS011;34502;51.296;16.918;2023-02-28T14:17:01;17.40;;;9.35;;
48703;SDS011;34502;51.296;16.918;2023-02-28T14:19:29;13.95;;;9.13;;
48703;SDS011;34502;51.296;16.918;2023-02-28T14:33:19;18.38;;;9.10;;
48703;SDS011;34502;51.296;16.918;2023-02-28T14:36:18;17.02;;;9.60;;
48703;SDS011;34502;51.296;16.918;2023-02-28T14:39:32;20.52;;;12.32;;
48703;SDS011;34502;51.296;16.918;2023-02-28T14:41:51;17.17;;;9.30;;
48703;SDS011;34502;51.296;16.918;2023-02-28T14:44:18;18.10;;;10.57;;
48703;SDS011;34502;51.296;16.918;2023-02-28T14:46:49;15.07;;;8.63;;
48703;SDS011;34502;51.296;16.918;2023-02-28T14:49:21;14.25;;;8.60;;
48703;SDS011;34502;51.296;16.918;2023-02-28T14:54:40;17.83;;;9.63;;
48703;SDS011;34502;51.296;16.918;2023-02-28T14:57:20;15.95;;;9.60;;
48703;SDS011;34502;51.296;16.918;2023-02-28T15:02:48;16.33;;;10.48;;
48703;SDS011;34502;51.296;16.918;2023-02-28T15:07:44;17.85;;;11.75;;
48703;SDS011;34502;51.296;16.918;2023-02-28T15:10:19;20.17;;;12.15;;
48703;SDS011;34502;51.296;16.918;2023-02-28T15:12:52;17.85;;;10.82;;
48703;SDS011;34502;51.296;16.918;2023-02-28T15:17:58;20.95;;;12.25;;
48703;SDS011;34502;51.296;16.918;2023-02-28T15:20:25;17.38;;;11.52;;
48703;SDS011;34502;51.296;16.918;2023-02-28T15:22:52;17.83;;;11.15;;
48703;SDS011;34502;51.296;16.918;2023-02-28T15:25:21;26.52;;;14.45;;
48703;SDS011;34502;51.296;16.918;2023-02-28T15:27:49;18.20;;;11.45;;
48703;SDS011;34502;51.296;16.918;2023-02-28T15:30:19;15.73;;;9.82;;
48703;SDS011;34502;51.296;16.918;2023-02-28T15:35:49;14.65;;;10.15;;
48703;SDS011;34502;51.296;16.918;2023-02-28T15:38:17;15.30;;;10.50;;
48703;SDS011;34502;51.296;16.918;2023-02-28T15:40:55;17.20;;;10.80;;
48703;SDS011;34502;51.296;16.918;2023-02-28T15:43:26;17.75;;;11.48;;
48703;SDS011;34502;51.296;16.918;2023-02-28T15:45:58;22.95;;;13.02;;
48703;SDS011;34502;51.296;16.918;2023-02-28T15:51:16;21.80;;;13.25;;
48703;SDS011;34502;51.296;16.918;2023-02-28T15:53:48;19.75;;;13.15;;
48703;SDS011;34502;51.296;16.918;2023-02-28T15:56:28;23.53;;;15.27;;
48703;SDS011;34502;51.296;16.918;2023-02-28T15:58:55;22.55;;;14.23;;
48703;SDS011;34502;51.296;16.918;2023-02-28T16:01:27;26.63;;;16.23;;
48703;SDS011;34502;51.296;16.918;2023-02-28T16:03:59;27.57;;;15.97;;
48703;SDS011;34502;51.296;16.918;2023-02-28T16:06:32;22.10;;;15.02;;
48703;SDS011;34502;51.296;16.918;2023-02-28T16:08:59;21.27;;;14.02;;
48703;SDS011;34502;51.296;16.918;2023-02-28T16:11:25;23.30;;;15.20;;
48703;SDS011;34502;51.296;16.918;2023-02-28T16:13:52;33.08;;;18.67;;
48703;SDS011;34502;51.296;16.918;2023-02-28T16:16:20;31.00;;;18.90;;
48703;SDS011;34502;51.296;16.918;2023-02-28T16:18:49;40.17;;;22.02;;
48703;SDS011;34502;51.296;16.918;2023-02-28T16:21:15;43.90;;;25.00;;
48703;SDS011;34502;51.296;16.918;2023-02-28T16:23:42;45.80;;;23.85;;
48703;SDS011;34502;51.296;16.918;2023-02-28T16:26:08;53.25;;;27.30;;
48703;SDS011;34502;51.296;16.918;2023-02-28T16:28:41;43.55;;;24.00;;
48703;SDS011;34502;51.296;16.918;2023-02-28T16:31:07;49.65;;;26.65;;
48703;SDS011;34502;51.296;16.918;2023-02-28T16:33:39;42.97;;;23.45;;
48703;SDS011;34502;51.296;16.918;2023-02-28T16:36:05;42.15;;;23.67;;
48703;SDS011;34502;51.296;16.918;2023-02-28T16:38:34;34.58;;;21.55;;
48703;SDS011;34502;51.296;16.918;2023-02-28T16:41:00;44.80;;;25.08;;
48703;SDS011;34502;51.296;16.918;2023-02-28T16:43:26;39.45;;;24.30;;
48703;SDS011;34502;51.296;16.918;2023-02-28T16:45:56;40.75;;;23.63;;
48703;SDS011;34502;51.296;16.918;2023-02-28T16:48:23;39.15;;;24.33;;
48703;SDS011;34502;51.296;16.918;2023-02-28T16:50:50;42.65;;;25.95;;
48703;SDS011;34502;51.296;16.918;2023-02-28T16:53:16;47.42;;;27.35;;
48703;SDS011;34502;51.296;16.918;2023-02-28T16:55:42;44.15;;;26.48;;